Hutchinson County Airport - Borger, Texas, United States - FAA: BGD - ICAO: KBGD - IATA: BGD

 
  Longest Runway: 6,300 feet   Approach Types:    Customs Landing Rights Airport: No   Port of Entry: No

Local Forecast

This Afternoon (3/29): Sunny, with a high near 75. North northeast wind around 20 mph, with gusts as high as 25 mph.

Tonight (3/29): Partly cloudy, with a low around 43. Northeast wind 5 to 15 mph becoming south after midnight. Winds could gust as high as 20 mph.

Monday (3/30): Mostly sunny, with a high near 76. South southwest wind 5 to 15 mph.

Monday Night (3/30): Partly cloudy, with a low around 51. South wind around 10 mph.

Tuesday (3/31): A 20 percent chance of showers and thunderstorms. Mostly sunny, with a high near 83. Northwest wind 5 to 10 mph becoming light and variable.

Tuesday Night (3/31): Partly cloudy, with a low around 53. East wind 5 to 10 mph becoming southwest after midnight.

Wednesday (4/1): Sunny, with a high near 85. Southwest wind 10 to 15 mph.



Current Weather (METAR)

2015/03/29 18:51 KBGD 291851Z AUTO 01026G32KT 10SM CLR 23/M04 A3018 RMK AO2 PK WND 01033/1812 SLP188 T02331044

BORGER HUTCHINSON CO AIRPORT , TX, United States (KBGD) 35-42N 101-24W 927M Mar 29, 2015 - 02:51 PM EDT / 2015.03.29 1851 UTC Wind: from the N (010 degrees) at 30 MPH (26 KT) gusting to 37 MPH (32 KT):0 Visibility: 10 mile(s):0 Sky conditions: clear Temperature: 73.9 F (23.3 C) Dew Point: 24.1 F (-4.4 C) Relative Humidity: 15% Pressure (altimeter): 30.18 in. Hg (1022 hPa) ob: KBGD 291851Z AUTO 01026G32KT 10SM CLR 23/M04 A3018 RMK AO2 PK WND 01033/1812 SLP188 T02331044 cycle: 19

Terminal Forecast (TAF)